sensor_id;sensor_type;location;lat;lon;timestamp;pressure;altitude;pressure_sealevel;temperature;humidity
68941;BME280;55982;51.476;7.552;2022-10-22T00:01:54;99205.84;;;14.52;100.00
68941;BME280;55982;51.476;7.552;2022-10-22T00:04:20;99214.50;;;14.54;100.00
68941;BME280;55982;51.476;7.552;2022-10-22T00:06:45;99219.94;;;14.51;100.00
68941;BME280;55982;51.476;7.552;2022-10-22T00:09:12;99226.22;;;14.49;100.00
68941;BME280;55982;51.476;7.552;2022-10-22T00:11:38;99216.56;;;14.49;100.00
68941;BME280;55982;51.476;7.552;2022-10-22T00:14:03;99219.94;;;14.51;100.00
68941;BME280;55982;51.476;7.552;2022-10-22T00:16:29;99221.06;;;14.47;100.00
68941;BME280;55982;51.476;7.552;2022-10-22T00:18:54;99225.56;;;14.45;100.00
68941;BME280;55982;51.476;7.552;2022-10-22T00:21:20;99221.81;;;14.49;100.00
68941;BME280;55982;51.476;7.552;2022-10-22T00:23:45;99216.56;;;14.49;100.00
68941;BME280;55982;51.476;7.552;2022-10-22T00:26:11;99222.75;;;14.48;100.00
68941;BME280;55982;51.476;7.552;2022-10-22T00:28:37;99228.97;;;14.47;100.00
68941;BME280;55982;51.476;7.552;2022-10-22T00:31:03;99228.41;;;14.42;100.00
68941;BME280;55982;51.476;7.552;2022-10-22T00:33:29;99229.91;;;14.46;100.00
68941;BME280;55982;51.476;7.552;2022-10-22T00:35:54;99231.19;;;14.39;100.00
68941;BME280;55982;51.476;7.552;2022-10-22T00:38:20;99231.38;;;14.36;100.00
68941;BME280;55982;51.476;7.552;2022-10-22T00:40:45;99231.84;;;14.43;100.00
68941;BME280;55982;51.476;7.552;2022-10-22T00:43:13;99237.50;;;14.37;100.00
68941;BME280;55982;51.476;7.552;2022-10-22T00:45:39;99232.13;;;14.38;100.00
68941;BME280;55982;51.476;7.552;2022-10-22T00:48:13;99241.16;;;14.48;100.00
68941;BME280;55982;51.476;7.552;2022-10-22T00:50:53;99234.03;;;14.50;100.00
68941;BME280;55982;51.476;7.552;2022-10-22T00:53:27;99227.09;;;14.49;100.00
68941;BME280;55982;51.476;7.552;2022-10-22T00:55:54;99236.09;;;14.45;100.00
68941;BME280;55982;51.476;7.552;2022-10-22T00:58:22;99231.69;;;14.46;100.00
68941;BME280;55982;51.476;7.552;2022-10-22T01:00:48;99233.28;;;14.48;100.00
68941;BME280;55982;51.476;7.552;2022-10-22T01:03:13;99224.56;;;14.48;100.00
68941;BME280;55982;51.476;7.552;2022-10-22T01:05:47;99229.47;;;14.54;100.00
68941;BME280;55982;51.476;7.552;2022-10-22T01:08:25;99228.41;;;14.56;100.00
68941;BME280;55982;51.476;7.552;2022-10-22T01:11:14;99229.94;;;14.60;100.00
68941;BME280;55982;51.476;7.552;2022-10-22T01:14:00;99221.28;;;14.58;100.00
68941;BME280;55982;51.476;7.552;2022-10-22T01:16:41;99217.06;;;14.56;100.00
68941;BME280;55982;51.476;7.552;2022-10-22T01:19:39;99210.94;;;14.55;100.00
68941;BME280;55982;51.476;7.552;2022-10-22T01:30:27;99212.97;;;14.50;100.00
68941;BME280;55982;51.476;7.552;2022-10-22T01:32:56;99212.31;;;14.47;100.00
68941;BME280;55982;51.476;7.552;2022-10-22T01:35:30;99211.50;;;14.46;100.00
68941;BME280;55982;51.476;7.552;2022-10-22T01:38:00;99208.09;;;14.44;100.00
68941;BME280;55982;51.476;7.552;2022-10-22T01:40:27;99199.25;;;14.45;100.00
68941;BME280;55982;51.476;7.552;2022-10-22T01:42:58;99206.22;;;14.46;100.00
68941;BME280;55982;51.476;7.552;2022-10-22T01:45:24;99200.97;;;14.46;100.00
68941;BME280;55982;51.476;7.552;2022-10-22T01:47:59;99202.53;;;14.49;100.00
68941;BME280;55982;51.476;7.552;2022-10-22T01:50:56;99200.78;;;14.49;100.00
68941;BME280;55982;51.476;7.552;2022-10-22T01:53:35;99193.22;;;14.43;100.00
68941;BME280;55982;51.476;7.552;2022-10-22T02:04:56;99177.63;;;14.40;100.00
68941;BME280;55982;51.476;7.552;2022-10-22T02:07:05;99171.41;;;14.41;100.00
68941;BME280;55982;51.476;7.552;2022-10-22T02:09:32;99165.13;;;14.44;100.00
68941;BME280;55982;51.476;7.552;2022-10-22T02:12:01;99169.75;;;14.40;100.00
68941;BME280;55982;51.476;7.552;2022-10-22T02:14:28;99162.00;;;14.37;100.00
68941;BME280;55982;51.476;7.552;2022-10-22T02:16:56;99174.06;;;14.41;100.00
68941;BME280;55982;51.476;7.552;2022-10-22T02:21:54;99176.69;;;14.41;100.00
68941;BME280;55982;51.476;7.552;2022-10-22T02:24:20;99188.16;;;14.40;100.00
68941;BME280;55982;51.476;7.552;2022-10-22T02:27:06;99185.53;;;14.40;100.00
68941;BME280;55982;51.476;7.552;2022-10-22T02:29:38;99173.47;;;14.36;100.00
68941;BME280;55982;51.476;7.552;2022-10-22T02:32:06;99183.66;;;14.42;100.00
68941;BME280;55982;51.476;7.552;2022-10-22T02:34:33;99199.25;;;14.45;100.00
68941;BME280;55982;51.476;7.552;2022-10-22T02:36:59;99181.84;;;14.43;100.00
68941;BME280;55982;51.476;7.552;2022-10-22T02:39:26;99183.81;;;14.39;100.00
68941;BME280;55982;51.476;7.552;2022-10-22T02:41:52;99199.59;;;14.39;100.00
68941;BME280;55982;51.476;7.552;2022-10-22T02:44:20;99189.09;;;14.39;100.00
68941;BME280;55982;51.476;7.552;2022-10-22T02:46:46;99188.91;;;14.42;100.00
68941;BME280;55982;51.476;7.552;2022-10-22T02:49:12;99200.56;;;14.38;100.00
68941;BME280;55982;51.476;7.552;2022-10-22T02:51:37;99198.50;;;14.43;100.00
68941;BME280;55982;51.476;7.552;2022-10-22T02:54:03;99194.34;;;14.39;100.00
68941;BME280;55982;51.476;7.552;2022-10-22T02:56:28;99199.59;;;14.39;100.00
68941;BME280;55982;51.476;7.552;2022-10-22T02:58:53;99192.16;;;14.32;100.00
68941;BME280;55982;51.476;7.552;2022-10-22T03:01:19;99196.41;;;14.34;100.00
68941;BME280;55982;51.476;7.552;2022-10-22T03:03:44;99197.31;;;14.33;100.00
68941;BME280;55982;51.476;7.552;2022-10-22T03:06:09;99193.03;;;14.32;100.00
68941;BME280;55982;51.476;7.552;2022-10-22T03:08:35;99197.53;;;14.30;100.00
68941;BME280;55982;51.476;7.552;2022-10-22T03:11:00;99201.31;;;14.25;100.00
68941;BME280;55982;51.476;7.552;2022-10-22T03:13:25;99193.44;;;14.25;100.00
68941;BME280;55982;51.476;7.552;2022-10-22T03:15:51;99195.41;;;14.21;100.00
68941;BME280;55982;51.476;7.552;2022-10-22T03:18:16;99209.66;;;14.17;100.00
68941;BME280;55982;51.476;7.552;2022-10-22T03:20:42;99204.41;;;14.17;100.00
68941;BME280;55982;51.476;7.552;2022-10-22T03:23:09;99211.34;;;14.18;100.00
68941;BME280;55982;51.476;7.552;2022-10-22T03:25:35;99221.72;;;14.21;100.00
68941;BME280;55982;51.476;7.552;2022-10-22T03:28:03;99213.53;;;14.26;100.00
68941;BME280;55982;51.476;7.552;2022-10-22T03:30:30;99219.31;;;14.32;100.00
68941;BME280;55982;51.476;7.552;2022-10-22T03:32:56;99207.69;;;14.36;100.00
68941;BME280;55982;51.476;7.552;2022-10-22T03:35:22;99210.47;;;14.33;100.00
68941;BME280;55982;51.476;7.552;2022-10-22T03:37:47;99219.31;;;14.32;100.00
68941;BME280;55982;51.476;7.552;2022-10-22T03:40:13;99216.25;;;14.24;100.00
68941;BME280;55982;51.476;7.552;2022-10-22T03:42:40;99214.72;;;14.20;100.00
68941;BME280;55982;51.476;7.552;2022-10-22T03:45:06;99215.28;;;14.11;100.00
68941;BME280;55982;51.476;7.552;2022-10-22T03:47:32;99215.59;;;14.05;100.00
68941;BME280;55982;51.476;7.552;2022-10-22T03:49:57;99218.25;;;14.05;100.00
68941;BME280;55982;51.476;7.552;2022-10-22T03:52:22;99228.19;;;14.00;100.00
68941;BME280;55982;51.476;7.552;2022-10-22T03:54:48;99228.00;;;14.03;100.00
68941;BME280;55982;51.476;7.552;2022-10-22T03:57:13;99224.44;;;14.04;100.00
68941;BME280;55982;51.476;7.552;2022-10-22T03:59:41;99218.50;;;14.01;100.00
68941;BME280;55982;51.476;7.552;2022-10-22T04:02:08;99222.75;;;14.03;100.00
68941;BME280;55982;51.476;7.552;2022-10-22T04:04:34;99219.00;;;14.07;100.00
68941;BME280;55982;51.476;7.552;2022-10-22T04:07:00;99227.31;;;14.15;100.00
68941;BME280;55982;51.476;7.552;2022-10-22T04:09:26;99236.31;;;14.11;100.00
68941;BME280;55982;51.476;7.552;2022-10-22T04:11:51;99243.25;;;14.12;100.00
68941;BME280;55982;51.476;7.552;2022-10-22T04:14:16;99235.53;;;14.09;100.00
68941;BME280;55982;51.476;7.552;2022-10-22T04:16:42;99245.13;;;14.10;100.00
68941;BME280;55982;51.476;7.552;2022-10-22T04:19:07;99246.41;;;14.03;100.00
68941;BME280;55982;51.476;7.552;2022-10-22T04:21:33;99250.03;;;14.01;100.00
68941;BME280;55982;51.476;7.552;2022-10-22T04:23:59;99249.22;;;14.00;100.00
68941;BME280;55982;51.476;7.552;2022-10-22T04:26:24;99246.59;;;14.00;100.00
68941;BME280;55982;51.476;7.552;2022-10-22T04:28:50;99245.84;;;13.98;100.00
68941;BME280;55982;51.476;7.552;2022-10-22T04:31:21;99254.28;;;14.03;100.00
68941;BME280;55982;51.476;7.552;2022-10-22T04:33:51;99252.63;;;14.02;100.00
68941;BME280;55982;51.476;7.552;2022-10-22T04:36:17;99252.69;;;14.01;100.00
68941;BME280;55982;51.476;7.552;2022-10-22T04:38:44;99252.44;;;14.05;100.00
68941;BME280;55982;51.476;7.552;2022-10-22T04:41:15;99259.38;;;14.06;100.00
68941;BME280;55982;51.476;7.552;2022-10-22T04:43:41;99247.84;;;14.09;100.00
68941;BME280;55982;51.476;7.552;2022-10-22T04:46:07;99257.50;;;14.08;100.00
68941;BME280;55982;51.476;7.552;2022-10-22T04:48:38;99251.34;;;14.09;100.00
68941;BME280;55982;51.476;7.552;2022-10-22T04:51:05;99253.97;;;14.09;100.00
68941;BME280;55982;51.476;7.552;2022-10-22T04:53:32;99252.25;;;14.08;100.00
68941;BME280;55982;51.476;7.552;2022-10-22T04:56:35;99244.00;;;14.14;100.00
68941;BME280;55982;51.476;7.552;2022-10-22T04:59:03;99253.09;;;14.09;100.00
68941;BME280;55982;51.476;7.552;2022-10-22T05:01:34;99264.63;;;14.06;100.00
68941;BME280;55982;51.476;7.552;2022-10-22T05:04:02;99250.91;;;14.01;100.00
68941;BME280;55982;51.476;7.552;2022-10-22T05:06:29;99258.22;;;13.96;100.00
68941;BME280;55982;51.476;7.552;2022-10-22T05:08:57;99256.41;;;13.97;100.00
68941;BME280;55982;51.476;7.552;2022-10-22T05:11:27;99262.88;;;13.91;100.00
68941;BME280;55982;51.476;7.552;2022-10-22T05:13:57;99267.13;;;13.94;100.00
68941;BME280;55982;51.476;7.552;2022-10-22T05:16:23;99267.03;;;13.95;100.00
68941;BME280;55982;51.476;7.552;2022-10-22T05:18:49;99265.00;;;14.00;100.00
68941;BME280;55982;51.476;7.552;2022-10-22T05:21:16;99266.53;;;14.04;100.00
68941;BME280;55982;51.476;7.552;2022-10-22T05:23:42;99267.78;;;13.97;100.00
68941;BME280;55982;51.476;7.552;2022-10-22T05:26:10;99277.38;;;13.98;100.00
68941;BME280;55982;51.476;7.552;2022-10-22T05:28:37;99281.38;;;14.05;100.00
68941;BME280;55982;51.476;7.552;2022-10-22T05:31:05;99278.41;;;14.11;100.00
68941;BME280;55982;51.476;7.552;2022-10-22T05:33:32;99277.53;;;14.11;100.00
68941;BME280;55982;51.476;7.552;2022-10-22T05:35:57;99285.53;;;14.09;100.00
68941;BME280;55982;51.476;7.552;2022-10-22T05:38:23;99285.34;;;14.12;100.00
68941;BME280;55982;51.476;7.552;2022-10-22T05:41:06;99288.91;;;14.11;100.00
68941;BME280;55982;51.476;7.552;2022-10-22T05:43:33;99288.91;;;14.11;100.00
68941;BME280;55982;51.476;7.552;2022-10-22T05:46:06;99286.28;;;14.11;100.00
68941;BME280;55982;51.476;7.552;2022-10-22T05:48:33;99288.31;;;14.06;100.00
68941;BME280;55982;51.476;7.552;2022-10-22T05:51:07;99303.06;;;14.09;100.00
68941;BME280;55982;51.476;7.552;2022-10-22T05:53:34;99295.38;;;14.06;100.00
68941;BME280;55982;51.476;7.552;2022-10-22T05:56:05;99290.78;;;14.09;100.00
68941;BME280;55982;51.476;7.552;2022-10-22T05:58:31;99308.44;;;14.07;100.00
68941;BME280;55982;51.476;7.552;2022-10-22T06:01:01;99312.16;;;14.03;100.00
68941;BME280;55982;51.476;7.552;2022-10-22T06:03:27;99317.50;;;14.02;100.00
68941;BME280;55982;51.476;7.552;2022-10-22T06:05:53;99322.69;;;14.03;100.00
68941;BME280;55982;51.476;7.552;2022-10-22T06:08:19;99304.84;;;14.08;100.00
68941;BME280;55982;51.476;7.552;2022-10-22T06:10:44;99305.88;;;14.06;100.00
68941;BME280;55982;51.476;7.552;2022-10-22T06:13:09;99316.66;;;14.01;100.00
68941;BME280;55982;51.476;7.552;2022-10-22T06:15:35;99322.88;;;14.00;100.00
68941;BME280;55982;51.476;7.552;2022-10-22T06:18:00;99333.53;;;13.97;100.00
68941;BME280;55982;51.476;7.552;2022-10-22T06:20:25;99335.56;;;13.92;100.00
68941;BME280;55982;51.476;7.552;2022-10-22T06:22:51;99338.03;;;13.95;100.00
68941;BME280;55982;51.476;7.552;2022-10-22T06:25:16;99340.75;;;13.94;100.00
68941;BME280;55982;51.476;7.552;2022-10-22T06:27:42;99342.53;;;13.93;100.00
68941;BME280;55982;51.476;7.552;2022-10-22T06:30:07;99350.50;;;13.92;100.00
68941;BME280;55982;51.476;7.552;2022-10-22T06:32:33;99357.63;;;13.90;100.00
68941;BME280;55982;51.476;7.552;2022-10-22T06:34:58;99352.53;;;13.87;100.00
68941;BME280;55982;51.476;7.552;2022-10-22T06:37:23;99356.84;;;13.88;100.00
68941;BME280;55982;51.476;7.552;2022-10-22T06:39:49;99368.22;;;13.88;100.00
68941;BME280;55982;51.476;7.552;2022-10-22T06:42:14;99361.34;;;13.86;100.00
68941;BME280;55982;51.476;7.552;2022-10-22T06:44:39;99379.66;;;13.87;100.00
68941;BME280;55982;51.476;7.552;2022-10-22T06:47:05;99374.06;;;13.93;100.00
68941;BME280;55982;51.476;7.552;2022-10-22T06:49:30;99375.94;;;13.91;100.00
68941;BME280;55982;51.476;7.552;2022-10-22T06:51:55;99377.66;;;13.92;100.00
68941;BME280;55982;51.476;7.552;2022-10-22T06:54:21;99381.81;;;13.96;100.00
68941;BME280;55982;51.476;7.552;2022-10-22T06:56:47;99385.03;;;14.01;100.00
68941;BME280;55982;51.476;7.552;2022-10-22T06:59:12;99392.69;;;14.06;100.00
68941;BME280;55982;51.476;7.552;2022-10-22T07:01:38;99385.47;;;14.09;100.00
68941;BME280;55982;51.476;7.552;2022-10-22T07:04:04;99395.66;;;14.15;100.00
68941;BME280;55982;51.476;7.552;2022-10-22T07:06:30;99396.09;;;14.23;100.00
68941;BME280;55982;51.476;7.552;2022-10-22T07:08:57;99409.88;;;14.28;100.00
68941;BME280;55982;51.476;7.552;2022-10-22T07:11:25;99415.66;;;14.35;100.00
68941;BME280;55982;51.476;7.552;2022-10-22T07:13:53;99413.38;;;14.44;100.00
68941;BME280;55982;51.476;7.552;2022-10-22T07:16:18;99417.38;;;14.51;100.00
68941;BME280;55982;51.476;7.552;2022-10-22T07:18:44;99416.50;;;14.66;100.00
68941;BME280;55982;51.476;7.552;2022-10-22T07:21:12;99424.41;;;14.82;100.00
68941;BME280;55982;51.476;7.552;2022-10-22T07:23:37;99420.63;;;15.02;100.00
68941;BME280;55982;51.476;7.552;2022-10-22T07:26:04;99428.06;;;15.25;100.00
68941;BME280;55982;51.476;7.552;2022-10-22T07:28:32;99429.88;;;15.54;100.00
68941;BME280;55982;51.476;7.552;2022-10-22T07:30:58;99437.03;;;15.80;100.00
68941;BME280;55982;51.476;7.552;2022-10-22T07:33:23;99434.03;;;16.00;100.00
68941;BME280;55982;51.476;7.552;2022-10-22T07:35:49;99439.50;;;16.25;100.00
68941;BME280;55982;51.476;7.552;2022-10-22T07:38:14;99441.75;;;16.45;100.00
68941;BME280;55982;51.476;7.552;2022-10-22T07:40:39;99442.84;;;16.70;100.00
68941;BME280;55982;51.476;7.552;2022-10-22T07:43:05;99451.72;;;16.83;100.00
68941;BME280;55982;51.476;7.552;2022-10-22T07:45:30;99446.06;;;17.01;100.00
68941;BME280;55982;51.476;7.552;2022-10-22T07:47:56;99448.81;;;17.00;100.00
68941;BME280;55982;51.476;7.552;2022-10-22T07:50:21;99447.91;;;16.87;100.00
68941;BME280;55982;51.476;7.552;2022-10-22T07:52:47;99450.78;;;16.70;100.00
68941;BME280;55982;51.476;7.552;2022-10-22T07:55:12;99454.00;;;16.46;100.00
68941;BME280;55982;51.476;7.552;2022-10-22T07:57:39;99464.75;;;16.29;100.00
68941;BME280;55982;51.476;7.552;2022-10-22T08:00:06;99456.44;;;16.64;100.00
68941;BME280;55982;51.476;7.552;2022-10-22T08:02:32;99471.84;;;17.51;100.00
68941;BME280;55982;51.476;7.552;2022-10-22T08:04:57;99468.94;;;18.44;100.00
68941;BME280;55982;51.476;7.552;2022-10-22T08:07:23;99473.97;;;18.72;100.00
68941;BME280;55982;51.476;7.552;2022-10-22T08:09:49;99465.28;;;19.53;100.00
68941;BME280;55982;51.476;7.552;2022-10-22T08:12:14;99470.91;;;19.49;100.00
68941;BME280;55982;51.476;7.552;2022-10-22T08:14:39;99475.50;;;19.92;100.00
68941;BME280;55982;51.476;7.552;2022-10-22T08:17:05;99481.03;;;20.35;100.00
68941;BME280;55982;51.476;7.552;2022-10-22T08:19:30;99478.97;;;20.39;100.00
68941;BME280;55982;51.476;7.552;2022-10-22T08:21:57;99472.22;;;20.57;100.00
68941;BME280;55982;51.476;7.552;2022-10-22T08:24:23;99486.47;;;20.34;100.00
68941;BME280;55982;51.476;7.552;2022-10-22T08:26:48;99480.91;;;20.59;100.00
68941;BME280;55982;51.476;7.552;2022-10-22T08:29:14;99483.94;;;19.86;100.00
68941;BME280;55982;51.476;7.552;2022-10-22T08:31:39;99478.41;;;20.00;100.00
68941;BME280;55982;51.476;7.552;2022-10-22T08:34:04;99487.84;;;20.16;100.00
68941;BME280;55982;51.476;7.552;2022-10-22T08:36:30;99484.56;;;20.01;100.00
68941;BME280;55982;51.476;7.552;2022-10-22T08:38:56;99487.06;;;19.80;100.00
68941;BME280;55982;51.476;7.552;2022-10-22T08:41:22;99494.19;;;19.45;100.00
68941;BME280;55982;51.476;7.552;2022-10-22T08:47:06;99496.03;;;18.60;100.00
68941;BME280;55982;51.476;7.552;2022-10-22T08:49:39;99509.44;;;18.46;100.00
68941;BME280;55982;51.476;7.552;2022-10-22T08:52:11;99508.97;;;18.14;100.00
68941;BME280;55982;51.476;7.552;2022-10-22T08:57:15;99518.91;;;17.85;100.00
68941;BME280;55982;51.476;7.552;2022-10-22T08:59:47;99515.50;;;17.83;100.00
68941;BME280;55982;51.476;7.552;2022-10-22T09:05:18;99529.28;;;18.13;100.00
68941;BME280;55982;51.476;7.552;2022-10-22T09:07:46;99528.78;;;18.08;100.00
68941;BME280;55982;51.476;7.552;2022-10-22T09:10:18;99519.75;;;17.98;100.00
68941;BME280;55982;51.476;7.552;2022-10-22T09:12:46;99530.34;;;17.86;100.00
68941;BME280;55982;51.476;7.552;2022-10-22T09:15:15;99529.88;;;17.79;100.00
68941;BME280;55982;51.476;7.552;2022-10-22T09:21:05;99533.69;;;17.22;100.00
68941;BME280;55982;51.476;7.552;2022-10-22T09:23:48;99540.34;;;17.15;100.00
68941;BME280;55982;51.476;7.552;2022-10-22T09:26:16;99541.25;;;17.14;100.00
68941;BME280;55982;51.476;7.552;2022-10-22T09:28:42;99534.91;;;16.90;100.00
68941;BME280;55982;51.476;7.552;2022-10-22T09:31:12;99549.47;;;16.69;100.00
68941;BME280;55982;51.476;7.552;2022-10-22T09:33:39;99543.63;;;16.50;100.00
68941;BME280;55982;51.476;7.552;2022-10-22T09:36:05;99550.59;;;16.36;100.00
68941;BME280;55982;51.476;7.552;2022-10-22T09:38:39;99559.41;;;16.21;100.00
68941;BME280;55982;51.476;7.552;2022-10-22T09:41:05;99558.09;;;16.14;100.00
68941;BME280;55982;51.476;7.552;2022-10-22T09:43:32;99562.19;;;16.04;100.00
68941;BME280;55982;51.476;7.552;2022-10-22T09:45:59;99564.06;;;16.02;100.00
68941;BME280;55982;51.476;7.552;2022-10-22T09:48:32;99569.00;;;16.08;100.00
68941;BME280;55982;51.476;7.552;2022-10-22T09:53:54;99576.38;;;16.31;100.00
68941;BME280;55982;51.476;7.552;2022-10-22T09:56:27;99572.47;;;16.53;100.00
68941;BME280;55982;51.476;7.552;2022-10-22T09:58:56;99580.22;;;16.70;100.00
68941;BME280;55982;51.476;7.552;2022-10-22T10:01:28;99578.34;;;16.86;100.00
68941;BME280;55982;51.476;7.552;2022-10-22T10:04:06;99574.81;;;17.40;100.00
68941;BME280;55982;51.476;7.552;2022-10-22T10:06:33;99578.38;;;17.92;100.00
68941;BME280;55982;51.476;7.552;2022-10-22T10:08:59;99584.19;;;18.37;100.00
68941;BME280;55982;51.476;7.552;2022-10-22T10:11:44;99582.81;;;18.18;100.00
68941;BME280;55982;51.476;7.552;2022-10-22T10:25:05;99591.09;;;17.48;100.00
68941;BME280;55982;51.476;7.552;2022-10-22T10:27:37;99598.31;;;17.45;100.00
68941;BME280;55982;51.476;7.552;2022-10-22T10:30:12;99593.47;;;17.24;100.00
68941;BME280;55982;51.476;7.552;2022-10-22T10:40:50;99608.91;;;16.76;100.00
68941;BME280;55982;51.476;7.552;2022-10-22T10:43:27;99607.22;;;16.75;100.00
68941;BME280;55982;51.476;7.552;2022-10-22T10:53:58;99614.56;;;16.70;100.00
68941;BME280;55982;51.476;7.552;2022-10-22T10:59:16;99627.22;;;16.79;100.00
68941;BME280;55982;51.476;7.552;2022-10-22T11:07:15;99627.97;;;16.81;100.00
68941;BME280;55982;51.476;7.552;2022-10-22T11:09:49;99630.78;;;16.64;100.00
68941;BME280;55982;51.476;7.552;2022-10-22T11:12:30;99622.59;;;16.68;100.00
68941;BME280;55982;51.476;7.552;2022-10-22T11:15:02;99623.03;;;16.61;100.00
68941;BME280;55982;51.476;7.552;2022-10-22T11:17:38;99627.69;;;16.71;100.00
68941;BME280;55982;51.476;7.552;2022-10-22T11:20:19;99629.66;;;16.82;100.00
68941;BME280;55982;51.476;7.552;2022-10-22T11:22:54;99637.22;;;17.02;100.00
68941;BME280;55982;51.476;7.552;2022-10-22T11:25:26;99634.75;;;17.13;100.00
68941;BME280;55982;51.476;7.552;2022-10-22T11:27:58;99625.84;;;17.14;100.00
68941;BME280;55982;51.476;7.552;2022-10-22T11:30:30;99634.00;;;17.25;100.00
68941;BME280;55982;51.476;7.552;2022-10-22T11:33:00;99624.81;;;17.16;100.00
68941;BME280;55982;51.476;7.552;2022-10-22T11:35:29;99630.59;;;17.23;100.00
68941;BME280;55982;51.476;7.552;2022-10-22T11:37:56;99635.66;;;17.26;100.00
68941;BME280;55982;51.476;7.552;2022-10-22T11:40:32;99631.50;;;17.36;100.00
68941;BME280;55982;51.476;7.552;2022-10-22T11:43:10;99631.84;;;17.58;100.00
68941;BME280;55982;51.476;7.552;2022-10-22T11:45:58;99627.03;;;17.51;100.00
68941;BME280;55982;51.476;7.552;2022-10-22T11:48:27;99624.22;;;17.54;100.00
68941;BME280;55982;51.476;7.552;2022-10-22T11:50:58;99630.91;;;17.45;100.00
68941;BME280;55982;51.476;7.552;2022-10-22T11:55:56;99633.56;;;17.59;100.00
68941;BME280;55982;51.476;7.552;2022-10-22T12:00:53;99626.75;;;17.55;100.00
68941;BME280;55982;51.476;7.552;2022-10-22T12:08:32;99644.44;;;17.81;100.00
68941;BME280;55982;51.476;7.552;2022-10-22T12:16:27;99631.13;;;17.42;100.00
68941;BME280;55982;51.476;7.552;2022-10-22T12:19:03;99637.91;;;17.46;100.00
68941;BME280;55982;51.476;7.552;2022-10-22T12:21:32;99636.78;;;17.50;100.00
68941;BME280;55982;51.476;7.552;2022-10-22T12:23:59;99632.44;;;17.76;100.00
68941;BME280;55982;51.476;7.552;2022-10-22T12:26:30;99624.50;;;17.76;100.00
68941;BME280;55982;51.476;7.552;2022-10-22T12:29:00;99622.72;;;17.76;100.00
68941;BME280;55982;51.476;7.552;2022-10-22T12:31:26;99614.28;;;17.57;100.00
68941;BME280;55982;51.476;7.552;2022-10-22T12:33:58;99621.72;;;17.65;100.00
68941;BME280;55982;51.476;7.552;2022-10-22T12:36:33;99635.50;;;17.70;100.00
68941;BME280;55982;51.476;7.552;2022-10-22T12:39:01;99626.66;;;17.83;100.00
68941;BME280;55982;51.476;7.552;2022-10-22T12:41:31;99618.41;;;17.88;100.00
68941;BME280;55982;51.476;7.552;2022-10-22T12:43:58;99634.91;;;17.79;100.00
68941;BME280;55982;51.476;7.552;2022-10-22T12:46:24;99631.16;;;17.69;100.00
68941;BME280;55982;51.476;7.552;2022-10-22T12:48:51;99627.66;;;17.68;100.00
68941;BME280;55982;51.476;7.552;2022-10-22T12:51:18;99623.16;;;17.56;100.00
68941;BME280;55982;51.476;7.552;2022-10-22T12:53:47;99629.78;;;17.35;100.00
68941;BME280;55982;51.476;7.552;2022-10-22T12:56:17;99628.47;;;17.42;100.00
68941;BME280;55982;51.476;7.552;2022-10-22T12:58:47;99625.56;;;17.32;100.00
68941;BME280;55982;51.476;7.552;2022-10-22T13:01:16;99623.84;;;17.31;100.00
68941;BME280;55982;51.476;7.552;2022-10-22T13:03:45;99630.50;;;17.10;100.00
68941;BME280;55982;51.476;7.552;2022-10-22T13:06:22;99630.97;;;17.17;100.00
68941;BME280;55982;51.476;7.552;2022-10-22T13:09:02;99629.91;;;17.19;100.00
68941;BME280;55982;51.476;7.552;2022-10-22T13:11:38;99634.50;;;17.44;100.00
68941;BME280;55982;51.476;7.552;2022-10-22T13:14:14;99623.56;;;17.36;100.00
68941;BME280;55982;51.476;7.552;2022-10-22T13:16:42;99624.97;;;17.42;100.00
68941;BME280;55982;51.476;7.552;2022-10-22T13:19:41;99626.47;;;17.46;100.00
68941;BME280;55982;51.476;7.552;2022-10-22T13:24:50;99627.66;;;17.68;100.00
68941;BME280;55982;51.476;7.552;2022-10-22T13:27:16;99628.06;;;17.62;100.00
68941;BME280;55982;51.476;7.552;2022-10-22T13:29:42;99625.88;;;17.69;100.00
68941;BME280;55982;51.476;7.552;2022-10-22T13:32:40;99616.22;;;17.68;100.00
68941;BME280;55982;51.476;7.552;2022-10-22T13:35:08;99617.56;;;17.87;100.00
68941;BME280;55982;51.476;7.552;2022-10-22T13:37:38;99615.03;;;17.98;100.00
68941;BME280;55982;51.476;7.552;2022-10-22T13:40:10;99614.81;;;17.89;100.00
68941;BME280;55982;51.476;7.552;2022-10-22T13:42:36;99628.94;;;17.75;100.00
68941;BME280;55982;51.476;7.552;2022-10-22T13:45:03;99635.25;;;17.60;100.00
68941;BME280;55982;51.476;7.552;2022-10-22T13:47:28;99631.28;;;17.39;100.00
68941;BME280;55982;51.476;7.552;2022-10-22T13:49:56;99641.72;;;17.28;100.00
68941;BME280;55982;51.476;7.552;2022-10-22T13:52:49;99633.41;;;17.20;100.00
68941;BME280;55982;51.476;7.552;2022-10-22T13:55:19;99630.00;;;17.18;100.00
68941;BME280;55982;51.476;7.552;2022-10-22T13:57:45;99638.81;;;17.18;100.00
68941;BME280;55982;51.476;7.552;2022-10-22T14:00:17;99636.44;;;17.14;100.00
68941;BME280;55982;51.476;7.552;2022-10-22T14:02:46;99644.56;;;17.25;100.00
68941;BME280;55982;51.476;7.552;2022-10-22T14:05:12;99652.66;;;17.08;100.00
68941;BME280;55982;51.476;7.552;2022-10-22T14:07:38;99657.59;;;17.14;100.00
68941;BME280;55982;51.476;7.552;2022-10-22T14:10:18;99653.72;;;17.05;100.00
68941;BME280;55982;51.476;7.552;2022-10-22T14:12:45;99659.09;;;17.18;100.00
68941;BME280;55982;51.476;7.552;2022-10-22T14:15:12;99647.78;;;17.02;100.00
68941;BME280;55982;51.476;7.552;2022-10-22T14:17:39;99647.88;;;17.14;100.00
68941;BME280;55982;51.476;7.552;2022-10-22T14:20:13;99665.72;;;17.11;100.00
68941;BME280;55982;51.476;7.552;2022-10-22T14:22:40;99655.31;;;17.08;100.00
68941;BME280;55982;51.476;7.552;2022-10-22T14:25:05;99666.78;;;16.94;100.00
68941;BME280;55982;51.476;7.552;2022-10-22T14:27:31;99664.41;;;16.90;100.00